createdAt,value
2022-11-18T00:00:51.122Z,73.01
2022-11-18T00:03:17.497Z,73.66
2022-11-18T00:05:44.117Z,74.56
2022-11-18T00:08:10.429Z,74.71
2022-11-18T00:10:38.823Z,75.22
2022-11-18T00:13:23.893Z,75.31
2022-11-18T00:15:50.356Z,75.66
2022-11-18T00:18:16.737Z,75.72
2022-11-18T00:20:43.083Z,76.08
2022-11-18T00:23:09.492Z,75.72
2022-11-18T00:25:35.841Z,75.93
2022-11-18T00:28:02.225Z,76.20
2022-11-18T00:30:28.592Z,76.27
2022-11-18T00:32:55.882Z,76.09
2022-11-18T00:35:22.240Z,76.18
2022-11-18T00:37:48.565Z,76.05
2022-11-18T00:40:14.977Z,75.75
2022-11-18T00:42:53.723Z,75.89
2022-11-18T00:45:21.849Z,76.03
2022-11-18T00:47:48.304Z,75.76
2022-11-18T00:50:15.408Z,76.03
2022-11-18T00:52:41.920Z,76.01
2022-11-18T00:55:08.738Z,75.65
2022-11-18T00:57:35.093Z,75.24
2022-11-18T01:00:01.470Z,75.08
2022-11-18T01:02:27.833Z,75.34
2022-11-18T01:04:54.199Z,75.33
2022-11-18T01:09:17.873Z,75.46
2022-11-18T01:12:03.155Z,75.52
2022-11-18T01:14:29.615Z,75.93
2022-11-18T01:16:56.846Z,75.98
2022-11-18T01:19:24.006Z,75.79
2022-11-18T01:21:50.994Z,76.43
2022-11-18T01:24:17.457Z,76.58
2022-11-18T01:26:43.844Z,76.36
2022-11-18T01:29:10.370Z,76.43
2022-11-18T01:31:45.684Z,76.54
2022-11-18T01:34:23.877Z,76.22
2022-11-18T01:36:52.686Z,76.58
2022-11-18T01:39:19.276Z,76.44
2022-11-18T01:41:45.816Z,76.03
2022-11-18T01:44:49.732Z,76.03
2022-11-18T01:47:16.539Z,76.16
2022-11-18T01:49:42.923Z,76.04
2022-11-18T01:52:09.583Z,75.89
2022-11-18T01:54:40.604Z,75.85
2022-11-18T01:57:13.119Z,76.11
2022-11-18T01:59:42.175Z,76.39
2022-11-18T02:02:11.957Z,76.43
2022-11-18T02:04:47.213Z,76.29
2022-11-18T02:07:14.688Z,76.29
2022-11-18T02:09:42.059Z,76.48
2022-11-18T02:12:08.902Z,76.26
2022-11-18T02:14:41.250Z,76.52
2022-11-18T02:17:31.185Z,76.45
2022-11-18T02:20:09.764Z,76.29
2022-11-18T02:23:11.433Z,76.60
2022-11-18T02:25:56.650Z,76.58
2022-11-18T02:28:45.550Z,76.96
2022-11-18T02:31:20.727Z,77.12
2022-11-18T02:33:55.643Z,76.99
2022-11-18T02:36:37.247Z,77.13
2022-11-18T02:39:10.582Z,77.22
2022-11-18T02:41:41.182Z,77.42
2022-11-18T02:44:13.559Z,77.31
2022-11-18T02:46:42.640Z,77.35
2022-11-18T02:49:28.857Z,77.57
2022-11-18T02:51:57.239Z,77.03
2022-11-18T02:54:28.319Z,77.27
2022-11-18T02:56:55.487Z,77.25
2022-11-18T02:59:21.904Z,76.87
2022-11-18T03:01:48.491Z,76.86
2022-11-18T03:04:17.293Z,76.88
2022-11-18T03:07:02.217Z,76.47
2022-11-18T03:09:34.727Z,76.31
2022-11-18T03:12:11.007Z,76.77
2022-11-18T03:14:43.655Z,76.13
2022-11-18T03:17:19.962Z,76.14
2022-11-18T03:20:03.524Z,76.06
2022-11-18T03:22:40.364Z,76.41
2022-11-18T03:25:44.748Z,76.50
2022-11-18T03:28:38.527Z,76.17
2022-11-18T03:31:09.984Z,76.03
2022-11-18T03:33:43.649Z,76.11
2022-11-18T03:36:12.770Z,76.14
2022-11-18T03:38:44.908Z,75.66
2022-11-18T03:41:14.355Z,75.92
2022-11-18T03:43:47.520Z,76.29
2022-11-18T03:46:23.040Z,75.86
2022-11-18T03:48:56.406Z,75.65
2022-11-18T03:51:30.041Z,75.81
2022-11-18T03:54:01.317Z,75.70
2022-11-18T03:56:33.637Z,76.23
2022-11-18T03:59:07.475Z,76.16
2022-11-18T04:01:48.208Z,76.08
2022-11-18T04:04:15.163Z,76.24
2022-11-18T04:06:41.616Z,75.93
2022-11-18T04:09:23.837Z,76.00
2022-11-18T04:12:04.657Z,75.90
2022-11-18T04:14:34.331Z,75.58
2022-11-18T04:17:05.742Z,75.83
2022-11-18T04:19:32.046Z,75.66
2022-11-18T04:21:58.405Z,75.71
2022-11-18T04:24:24.760Z,75.54
2022-11-18T04:26:51.066Z,75.54
2022-11-18T04:29:17.702Z,75.71
2022-11-18T04:31:44.277Z,75.66
2022-11-18T04:34:10.767Z,75.53
2022-11-18T04:36:37.179Z,75.48
2022-11-18T04:39:03.661Z,75.78
2022-11-18T04:41:48.646Z,75.80
2022-11-18T04:44:15.094Z,75.70
2022-11-18T04:46:42.778Z,75.60
2022-11-18T04:49:11.002Z,75.98
2022-11-18T04:51:37.497Z,76.21
2022-11-18T04:54:04.255Z,75.87
2022-11-18T04:56:31.118Z,75.87
2022-11-18T04:59:01.630Z,76.06
2022-11-18T05:01:29.569Z,75.81
2022-11-18T05:03:56.644Z,76.12
2022-11-18T05:06:23.799Z,75.82
2022-11-18T05:08:50.305Z,76.01
2022-11-18T05:11:35.426Z,75.97
2022-11-18T05:14:02.253Z,76.10
2022-11-18T05:16:28.661Z,75.81
2022-11-18T05:18:55.098Z,75.85
2022-11-18T05:21:21.601Z,76.08
2022-11-18T05:23:48.016Z,76.12
2022-11-18T05:26:14.380Z,76.10
2022-11-18T05:28:40.828Z,75.87
2022-11-18T05:31:13.306Z,76.16
2022-11-18T05:33:40.705Z,76.19
2022-11-18T05:36:18.442Z,76.42
2022-11-18T05:38:45.006Z,76.26
2022-11-18T05:41:31.484Z,76.03
2022-11-18T05:43:58.561Z,76.56
2022-11-18T05:46:25.552Z,76.49
2022-11-18T05:48:51.897Z,76.58
2022-11-18T05:51:18.337Z,76.75
2022-11-18T05:53:45.828Z,76.41
2022-11-18T05:56:39.569Z,76.30
2022-11-18T05:59:06.644Z,76.03
2022-11-18T06:01:43.849Z,76.14
2022-11-18T06:04:39.021Z,76.33
2022-11-18T06:07:10.482Z,76.43
2022-11-18T06:09:39.913Z,76.49
2022-11-18T06:12:07.451Z,76.69
2022-11-18T06:14:46.893Z,76.92
2022-11-18T06:17:25.329Z,76.17
2022-11-18T06:19:52.398Z,76.68
2022-11-18T06:22:18.920Z,76.45
2022-11-18T06:24:45.439Z,76.78
2022-11-18T06:27:14.265Z,77.36
2022-11-18T06:29:40.697Z,77.16
2022-11-18T06:32:07.064Z,76.77
2022-11-18T06:34:38.173Z,76.74
2022-11-18T06:37:15.186Z,76.97
2022-11-18T06:39:41.532Z,76.65
2022-11-18T06:42:07.945Z,76.63
2022-11-18T06:44:34.457Z,76.75
2022-11-18T06:47:02.468Z,76.79
2022-11-18T06:49:28.860Z,76.88
2022-11-18T06:51:55.318Z,76.93
2022-11-18T06:54:22.207Z,77.03
2022-11-18T06:56:48.556Z,77.14
2022-11-18T06:59:15.359Z,77.15
2022-11-18T07:01:42.247Z,76.94
2022-11-18T07:04:08.933Z,76.79
2022-11-18T07:06:36.760Z,76.69
2022-11-18T07:09:06.060Z,77.00
2022-11-18T07:11:33.031Z,77.46
2022-11-18T07:14:00.200Z,77.47
2022-11-18T07:16:27.443Z,78.22
2022-11-18T07:18:54.817Z,77.74
2022-11-18T07:21:24.625Z,78.00
2022-11-18T07:23:51.649Z,77.62
2022-11-18T07:26:18.445Z,77.79
2022-11-18T07:28:45.264Z,77.49
2022-11-18T07:31:13.791Z,77.76
2022-11-18T07:33:41.646Z,77.60
2022-11-18T07:36:33.960Z,77.75
2022-11-18T07:39:03.318Z,78.12
2022-11-18T07:41:30.604Z,77.90
2022-11-18T07:44:00.813Z,78.05
2022-11-18T07:46:30.177Z,77.73
2022-11-18T07:48:58.143Z,77.54
2022-11-18T07:51:27.318Z,76.90
2022-11-18T07:53:53.977Z,77.69
2022-11-18T07:56:21.615Z,77.48
2022-11-18T07:58:51.860Z,77.33
2022-11-18T08:01:20.855Z,77.43
2022-11-18T08:03:48.075Z,77.47
2022-11-18T08:06:16.246Z,77.61
2022-11-18T08:08:43.362Z,77.39
2022-11-18T08:11:16.193Z,77.07
2022-11-18T08:13:45.301Z,76.99
2022-11-18T08:16:14.850Z,76.93
2022-11-18T08:18:41.339Z,77.07
2022-11-18T08:21:07.771Z,77.08
2022-11-18T08:23:38.857Z,77.36
2022-11-18T08:26:16.565Z,77.64
2022-11-18T08:28:43.920Z,77.17
2022-11-18T08:31:21.210Z,77.20
2022-11-18T08:33:47.876Z,77.35
2022-11-18T08:36:20.811Z,77.48
2022-11-18T08:38:47.784Z,77.21
2022-11-18T08:41:17.820Z,77.48
2022-11-18T08:43:44.622Z,76.97
2022-11-18T08:46:11.081Z,76.42
2022-11-18T08:48:37.553Z,76.51
2022-11-18T08:51:04.676Z,76.29
2022-11-18T08:53:31.356Z,75.72
2022-11-18T08:55:58.846Z,75.36
2022-11-18T08:58:26.169Z,75.42
2022-11-18T09:00:52.948Z,75.31
2022-11-18T09:03:20.116Z,75.37
2022-11-18T09:05:46.656Z,75.09
2022-11-18T09:08:13.463Z,74.92
2022-11-18T09:10:39.795Z,74.87
2022-11-18T09:13:25.307Z,74.89
2022-11-18T09:15:52.400Z,74.45
2022-11-18T09:18:18.785Z,74.17
2022-11-18T09:20:54.542Z,74.01
2022-11-18T09:23:21.217Z,73.47
2022-11-18T09:25:47.933Z,72.99
2022-11-18T09:28:14.271Z,72.56
2022-11-18T09:30:42.979Z,71.90
2022-11-18T09:33:09.462Z,72.94
2022-11-18T09:35:35.913Z,72.01
2022-11-18T09:38:02.266Z,71.10
2022-11-18T09:40:28.692Z,71.11
2022-11-18T09:43:10.236Z,71.25
2022-11-18T09:45:47.137Z,70.97
2022-11-18T09:48:19.277Z,70.51
2022-11-18T09:50:50.437Z,70.59
2022-11-18T09:53:21.748Z,70.59
2022-11-18T09:55:50.316Z,70.47
2022-11-18T09:58:35.820Z,69.68
2022-11-18T10:01:03.782Z,69.13
2022-11-18T10:03:32.850Z,71.16
2022-11-18T10:06:29.398Z,69.89
2022-11-18T10:09:02.874Z,68.11
2022-11-18T10:11:41.462Z,67.22
2022-11-18T10:14:37.268Z,67.98
2022-11-18T10:17:19.781Z,67.76
2022-11-18T10:19:54.889Z,67.05
2022-11-18T10:22:30.785Z,65.71
2022-11-18T10:25:00.592Z,65.01
2022-11-18T10:27:37.580Z,64.39
2022-11-18T10:30:31.623Z,64.31
2022-11-18T10:33:03.982Z,62.55
2022-11-18T10:35:36.255Z,61.29
2022-11-18T10:38:14.872Z,60.85
2022-11-18T10:40:57.237Z,61.16
2022-11-18T10:43:43.551Z,61.10
2022-11-18T10:46:25.988Z,60.57
2022-11-18T10:49:10.709Z,59.55
2022-11-18T10:51:37.836Z,58.65
2022-11-18T10:54:14.187Z,59.33
2022-11-18T10:56:56.373Z,59.87
2022-11-18T10:59:46.530Z,61.15
2022-11-18T11:02:31.136Z,60.25
2022-11-18T11:05:01.267Z,59.38
2022-11-18T11:07:33.780Z,58.54
2022-11-18T11:10:12.601Z,57.57
2022-11-18T11:12:48.782Z,59.15
2022-11-18T11:15:41.223Z,60.00
2022-11-18T11:18:35.844Z,58.14
2022-11-18T11:21:02.215Z,54.17
2022-11-18T11:23:32.152Z,53.14
2022-11-18T11:29:13.900Z,53.79
2022-11-18T11:32:18.049Z,56.71
2022-11-18T11:35:02.111Z,59.27
2022-11-18T11:37:47.308Z,60.76
2022-11-18T11:40:23.601Z,62.48
2022-11-18T11:43:00.009Z,62.83
2022-11-18T11:45:52.569Z,63.03
2022-11-18T11:48:33.790Z,63.32
2022-11-18T11:51:33.535Z,63.12
2022-11-18T11:54:31.165Z,63.00
2022-11-18T11:57:40.798Z,63.27
2022-11-18T12:00:14.714Z,63.14
2022-11-18T12:03:12.237Z,62.95
2022-11-18T12:05:42.902Z,63.19
2022-11-18T12:08:22.584Z,63.61
2022-11-18T12:11:07.309Z,63.54
2022-11-18T12:13:40.426Z,63.36
2022-11-18T12:16:29.834Z,64.25
2022-11-18T12:19:07.655Z,64.61
2022-11-18T12:21:46.254Z,64.99
2022-11-18T12:24:18.404Z,64.74
2022-11-18T12:26:50.423Z,65.23
2022-11-18T12:29:19.664Z,65.29
2022-11-18T12:31:54.815Z,65.57
2022-11-18T12:34:40.819Z,65.85
2022-11-18T12:37:25.269Z,65.47
2022-11-18T12:40:00.579Z,65.47
2022-11-18T12:43:20.164Z,65.65
2022-11-18T12:45:48.665Z,66.01
2022-11-18T12:48:27.579Z,66.15
2022-11-18T12:50:59.792Z,65.61
2022-11-18T12:53:43.783Z,66.11
2022-11-18T12:56:19.614Z,65.69
2022-11-18T12:58:57.398Z,66.13
2022-11-18T13:01:35.123Z,65.90
2022-11-18T13:04:16.184Z,65.93
2022-11-18T13:06:43.885Z,65.87
2022-11-18T13:09:36.942Z,66.09
2022-11-18T13:12:17.717Z,66.00
2022-11-18T13:15:04.148Z,66.16
2022-11-18T13:17:58.395Z,66.44
2022-11-18T13:20:31.039Z,66.52
2022-11-18T13:23:29.380Z,65.31
2022-11-18T13:26:06.805Z,64.66
2022-11-18T13:28:45.276Z,64.56
2022-11-18T13:31:31.829Z,64.81
2022-11-18T13:34:15.204Z,64.22
2022-11-18T13:36:45.941Z,64.16
2022-11-18T13:39:24.947Z,63.12
2022-11-18T13:42:07.418Z,63.32
2022-11-18T13:44:36.243Z,63.76
2022-11-18T13:47:31.194Z,63.61
2022-11-18T13:50:18.180Z,63.63
2022-11-18T13:52:56.440Z,63.51
2022-11-18T13:55:26.919Z,63.30
2022-11-18T13:58:03.210Z,63.04
2022-11-18T14:00:34.310Z,63.04
2022-11-18T14:03:05.805Z,63.01
2022-11-18T14:05:32.767Z,63.07
2022-11-18T14:08:04.644Z,62.98
2022-11-18T14:10:38.182Z,62.59
2022-11-18T14:13:18.135Z,63.26
2022-11-18T14:15:45.277Z,63.42
2022-11-18T14:18:20.160Z,63.69
2022-11-18T14:20:52.459Z,63.51
2022-11-18T14:23:24.656Z,63.52
2022-11-18T14:25:51.091Z,63.63
2022-11-18T14:28:27.824Z,63.95
2022-11-18T14:31:03.701Z,63.94
2022-11-18T14:33:39.467Z,63.96
2022-11-18T14:36:15.505Z,64.22
2022-11-18T14:41:49.031Z,64.57
2022-11-18T14:44:17.216Z,64.68
2022-11-18T14:46:46.351Z,65.26
2022-11-18T14:49:18.724Z,65.24
2022-11-18T14:51:46.151Z,65.46
2022-11-18T14:54:23.781Z,65.42
2022-11-18T14:56:54.373Z,65.30
2022-11-18T14:59:21.114Z,65.58
2022-11-18T15:01:50.208Z,65.71
2022-11-18T15:04:17.844Z,66.28
2022-11-18T15:06:47.789Z,66.59
2022-11-18T15:09:14.165Z,67.79
2022-11-18T15:11:41.281Z,68.69
2022-11-18T15:14:07.732Z,69.69
2022-11-18T15:16:35.108Z,71.13
2022-11-18T15:19:03.629Z,72.72
2022-11-18T15:21:30.788Z,73.25
2022-11-18T15:23:57.147Z,73.06
2022-11-18T15:26:28.198Z,73.41
2022-11-18T15:28:55.767Z,74.80
2022-11-18T15:31:23.131Z,75.01
2022-11-18T15:33:51.096Z,75.80
2022-11-18T15:36:25.501Z,76.88
2022-11-18T15:38:53.765Z,76.82
2022-11-18T15:41:26.087Z,76.71
2022-11-18T15:43:53.942Z,76.80
2022-11-18T15:46:23.483Z,77.68
2022-11-18T15:48:57.119Z,77.84
2022-11-18T15:51:35.965Z,78.46
2022-11-18T15:54:02.422Z,78.59
2022-11-18T15:56:30.507Z,78.46
2022-11-18T15:58:59.056Z,78.24
2022-11-18T16:01:27.452Z,78.52
2022-11-18T16:03:57.959Z,78.19
2022-11-18T16:06:25.085Z,78.55
2022-11-18T16:08:57.576Z,78.50
2022-11-18T16:11:42.881Z,78.49
2022-11-18T16:14:11.508Z,78.76
2022-11-18T16:16:40.001Z,79.23
2022-11-18T16:19:08.580Z,78.97
2022-11-18T16:21:38.194Z,78.75
2022-11-18T16:24:06.451Z,79.04
2022-11-18T16:26:33.938Z,79.09
2022-11-18T16:29:01.026Z,79.40
2022-11-18T16:31:43.770Z,79.86
2022-11-18T16:34:16.199Z,79.07
2022-11-18T16:36:48.285Z,79.41
2022-11-18T16:39:17.192Z,79.10
2022-11-18T16:41:44.859Z,79.28
2022-11-18T16:44:14.086Z,78.87
2022-11-18T16:46:49.305Z,78.41
2022-11-18T16:49:17.849Z,79.54
2022-11-18T16:51:47.044Z,80.34
2022-11-18T16:54:17.928Z,80.22
2022-11-18T16:56:45.322Z,81.82
2022-11-18T16:59:14.919Z,82.41
2022-11-18T17:01:41.777Z,81.85
2022-11-18T17:04:08.897Z,81.69
2022-11-18T17:06:35.635Z,81.90
2022-11-18T17:09:02.092Z,81.69
2022-11-18T17:11:28.542Z,82.13
2022-11-18T17:13:58.029Z,82.13
2022-11-18T17:16:26.158Z,82.03
2022-11-18T17:18:57.214Z,82.17
2022-11-18T17:21:24.502Z,82.86
2022-11-18T17:23:51.360Z,82.85
2022-11-18T17:26:20.507Z,82.60
2022-11-18T17:28:47.517Z,82.69
2022-11-18T17:31:16.430Z,82.38
2022-11-18T17:33:43.702Z,82.42
2022-11-18T17:36:17.549Z,82.42
2022-11-18T17:38:46.785Z,81.79
2022-11-18T17:41:33.962Z,81.65
2022-11-18T17:44:01.805Z,81.46
2022-11-18T17:46:33.377Z,81.55
2022-11-18T17:49:05.424Z,81.86
2022-11-18T17:51:32.214Z,82.06
2022-11-18T17:53:58.729Z,82.08
2022-11-18T17:56:25.358Z,81.78
2022-11-18T17:58:54.266Z,81.72
2022-11-18T18:01:22.089Z,82.11
2022-11-18T18:03:49.067Z,81.69
2022-11-18T18:06:16.610Z,81.77
2022-11-18T18:08:43.420Z,82.27
2022-11-18T18:11:16.211Z,82.23
2022-11-18T18:14:01.653Z,81.55
2022-11-18T18:16:30.146Z,81.20
2022-11-18T18:18:58.676Z,80.99
2022-11-18T18:21:25.720Z,81.29
2022-11-18T18:23:52.497Z,81.30
2022-11-18T18:26:19.103Z,81.42
2022-11-18T18:28:45.665Z,81.46
2022-11-18T18:31:15.390Z,81.54
2022-11-18T18:33:44.833Z,81.54
2022-11-18T18:36:15.272Z,81.46
2022-11-18T18:38:42.974Z,81.41
2022-11-18T18:41:21.164Z,81.55
2022-11-18T18:43:48.802Z,81.56
2022-11-18T18:46:30.230Z,81.60
2022-11-18T18:48:58.455Z,81.30
2022-11-18T18:51:26.613Z,81.39
2022-11-18T18:53:54.736Z,81.54
2022-11-18T18:56:21.178Z,81.40
2022-11-18T18:58:48.730Z,81.59
2022-11-18T19:01:17.063Z,81.60
2022-11-18T19:03:44.350Z,81.49
2022-11-18T19:09:19.051Z,81.93
2022-11-18T19:12:04.169Z,81.51
2022-11-18T19:14:32.468Z,81.11
2022-11-18T19:16:58.817Z,81.16
2022-11-18T19:19:46.533Z,81.65
2022-11-18T19:22:14.686Z,80.59
2022-11-18T19:24:49.612Z,81.14
2022-11-18T19:27:17.871Z,80.79
2022-11-18T19:29:44.504Z,80.89
2022-11-18T19:32:11.028Z,80.92
2022-11-18T19:34:37.351Z,80.26
2022-11-18T19:37:03.727Z,80.82
2022-11-18T19:39:30.162Z,81.57
2022-11-18T19:41:56.667Z,81.19
2022-11-18T19:44:23.061Z,81.58
2022-11-18T19:46:50.028Z,81.88
2022-11-18T19:49:17.006Z,82.16
2022-11-18T19:51:43.543Z,81.77
2022-11-18T19:54:09.945Z,81.65
2022-11-18T19:56:36.397Z,81.50
2022-11-18T19:59:02.795Z,81.73
2022-11-18T20:01:33.842Z,81.79
2022-11-18T20:04:05.459Z,81.68
2022-11-18T20:06:33.721Z,81.77
2022-11-18T20:09:00.116Z,81.70
2022-11-18T20:11:26.516Z,81.71
2022-11-18T20:13:52.870Z,81.39
2022-11-18T20:16:22.538Z,81.77
2022-11-18T20:18:53.728Z,81.89
2022-11-18T20:21:20.932Z,81.49
2022-11-18T20:23:49.023Z,82.23
2022-11-18T20:26:17.595Z,82.08
2022-11-18T20:28:45.584Z,82.20
2022-11-18T20:31:15.545Z,82.17
2022-11-18T20:33:44.439Z,81.74
2022-11-18T20:36:15.553Z,82.27
2022-11-18T20:38:42.248Z,82.03
2022-11-18T20:41:10.776Z,82.28
2022-11-18T20:43:38.771Z,81.71
2022-11-18T20:46:07.492Z,81.99
2022-11-18T20:48:34.889Z,82.25
2022-11-18T20:51:10.370Z,82.10
2022-11-18T20:53:38.971Z,82.69
2022-11-18T20:56:06.492Z,82.64
2022-11-18T20:58:36.101Z,82.14
2022-11-18T21:01:26.268Z,82.37
2022-11-18T21:04:01.041Z,82.17
2022-11-18T21:06:29.816Z,82.38
2022-11-18T21:08:58.014Z,82.66
2022-11-18T21:11:25.524Z,82.72
2022-11-18T21:14:10.559Z,82.93
2022-11-18T21:16:37.382Z,83.06
2022-11-18T21:19:04.710Z,83.26
2022-11-18T21:21:48.584Z,83.33
2022-11-18T21:24:19.048Z,83.35
2022-11-18T21:26:46.703Z,83.39
2022-11-18T21:29:14.723Z,83.32
2022-11-18T21:31:42.300Z,83.36
2022-11-18T21:34:09.512Z,83.66
2022-11-18T21:36:40.090Z,83.39
2022-11-18T21:39:14.222Z,83.76
2022-11-18T21:41:40.726Z,83.59
2022-11-18T21:44:15.052Z,83.66
2022-11-18T21:46:41.971Z,84.30
2022-11-18T21:49:09.236Z,84.00
2022-11-18T21:51:36.228Z,84.03
2022-11-18T21:54:03.253Z,84.03
2022-11-18T21:56:32.782Z,83.87
2022-11-18T21:59:01.056Z,84.08
2022-11-18T22:01:29.757Z,84.24
2022-11-18T22:04:01.768Z,83.85
2022-11-18T22:06:30.006Z,83.93
2022-11-18T22:08:56.615Z,83.88
2022-11-18T22:11:24.009Z,83.84
2022-11-18T22:13:51.920Z,83.87
2022-11-18T22:16:20.395Z,83.92
2022-11-18T22:18:53.052Z,83.65
2022-11-18T22:21:26.227Z,84.28
2022-11-18T22:23:53.165Z,84.76
2022-11-18T22:26:21.415Z,84.98
2022-11-18T22:28:52.972Z,85.83
2022-11-18T22:31:22.616Z,85.82
2022-11-18T22:33:53.480Z,85.99
2022-11-18T22:36:25.228Z,86.06
2022-11-18T22:38:51.723Z,86.14
2022-11-18T22:41:45.018Z,86.25
2022-11-18T22:44:12.661Z,86.39
2022-11-18T22:46:40.157Z,86.32
2022-11-18T22:49:07.763Z,86.02
2022-11-18T22:51:35.480Z,86.04
2022-11-18T22:54:36.518Z,85.45
2022-11-18T22:56:48.313Z,85.71
2022-11-18T22:59:14.723Z,85.25
2022-11-18T23:01:41.387Z,85.62
2022-11-18T23:04:08.028Z,85.57
2022-11-18T23:06:34.592Z,85.43
2022-11-18T23:09:00.977Z,85.33
2022-11-18T23:11:59.688Z,85.69
2022-11-18T23:14:26.111Z,85.98
2022-11-18T23:16:52.772Z,86.32
2022-11-18T23:19:19.506Z,86.19
2022-11-18T23:21:46.604Z,86.46
2022-11-18T23:24:14.979Z,86.94
2022-11-18T23:26:44.888Z,87.06
2022-11-18T23:29:12.708Z,87.21
2022-11-18T23:31:42.714Z,87.11
2022-11-18T23:34:13.266Z,87.27
2022-11-18T23:36:40.318Z,86.89
2022-11-18T23:39:07.233Z,86.68
2022-11-18T23:41:34.162Z,86.71
2022-11-18T23:44:03.789Z,86.92
2022-11-18T23:46:30.311Z,86.93
2022-11-18T23:48:56.714Z,87.33
2022-11-18T23:51:24.952Z,87.43
2022-11-18T23:53:56.643Z,87.77
2022-11-18T23:56:25.820Z,87.73
2022-11-18T23:58:57.872Z,87.78
